Time;durP1;ratioP1;P1;durP2;ratioP2;P2;SDS_P1;SDS_P2;PMS_P1;PMS_P2;Temp;Humidity;BMP_temperature;BMP_pressure;BME280_temperature;BME280_humidity;BME280_pressure;Samples;Min_cycle;Max_cycle;Signal;HPM_P1;HPM_P2
2022/10/23 00:01:10;;;;;;;;;;;20.90;54.30;;;;;;5066695;28;19990;-73
2022/10/23 00:03:37;;;;;;;;;;;20.90;54.30;;;;;;5034772;28;19921;-72
2022/10/23 00:06:04;;;;;;;;;;;20.90;54.20;;;;;;5031056;28;19975;-70
2022/10/23 00:08:32;;;;;;;;;;;20.90;54.20;;;;;;5060726;28;20273;-69
2022/10/23 00:10:59;;;;;;;;;;;20.90;54.20;;;;;;5063931;28;19978;-67
2022/10/23 00:13:25;;;;;;;;;;;20.90;54.20;;;;;;5062937;28;20475;-67
2022/10/23 00:15:52;;;;;;;;;;;20.90;54.10;;;;;;5065783;28;20322;-69
2022/10/23 00:18:19;;;;;;;;;;;20.90;54.10;;;;;;5048709;28;19920;-66
2022/10/23 00:20:45;;;;;;;;;;;20.90;54.10;;;;;;5047986;28;19928;-70
2022/10/23 00:23:12;;;;;;;;;;;20.90;54.00;;;;;;5048471;28;20394;-69
2022/10/23 00:25:40;;;;;;;;;;;20.90;54.00;;;;;;5048253;28;19925;-70
2022/10/23 00:28:07;;;;;;;;;;;20.90;54.00;;;;;;5050423;28;19975;-69
2022/10/23 00:30:33;;;;;;;;;;;20.90;54.00;;;;;;5049764;28;19928;-70
2022/10/23 00:33:00;;;;;;;;;;;20.90;54.00;;;;;;5048461;28;19968;-70
2022/10/23 00:35:27;;;;;;;;;;;20.90;53.90;;;;;;5064236;28;19925;-70
2022/10/23 00:37:53;;;;;;;;;;;20.90;53.90;;;;;;5062932;28;19980;-68
2022/10/23 00:40:20;;;;;;;;;;;20.90;53.90;;;;;;5035928;28;19920;-70
2022/10/23 00:42:48;;;;;;;;;;;20.90;53.90;;;;;;5063110;28;19968;-68
2022/10/23 00:45:17;;;;;;;;;;;20.90;53.90;;;;;;5065175;28;19933;-70
2022/10/23 00:47:44;;;;;;;;;;;20.90;53.80;;;;;;5048896;28;19950;-65
2022/10/23 00:50:10;;;;;;;;;;;20.90;53.80;;;;;;5048009;28;19964;-70
2022/10/23 00:52:37;;;;;;;;;;;20.90;53.80;;;;;;5048890;28;19920;-68
2022/10/23 00:55:04;;;;;;;;;;;20.90;53.80;;;;;;5065531;28;19929;-67
2022/10/23 00:57:31;;;;;;;;;;;20.90;53.80;;;;;;5048590;28;19986;-71
2022/10/23 00:59:59;;;;;;;;;;;20.90;53.80;;;;;;5061312;28;19958;-70
2022/10/23 01:02:26;;;;;;;;;;;20.90;53.70;;;;;;5065229;28;20214;-69
2022/10/23 01:04:52;;;;;;;;;;;20.80;53.60;;;;;;5057765;28;19978;-68
2022/10/23 01:07:21;;;;;;;;;;;20.90;53.70;;;;;;5047015;28;19967;-71
2022/10/23 01:09:49;;;;;;;;;;;20.80;53.60;;;;;;5048290;28;19921;-71
2022/10/23 01:12:19;;;;;;;;;;;20.80;53.60;;;;;;5047313;28;19921;-71
2022/10/23 01:14:48;;;;;;;;;;;20.80;53.60;;;;;;5064517;28;20014;-70
2022/10/23 01:17:17;;;;;;;;;;;20.80;53.50;;;;;;5064327;28;19974;-67
2022/10/23 01:19:47;;;;;;;;;;;20.80;53.50;;;;;;5055525;28;21012;-69
2022/10/23 01:22:18;;;;;;;;;;;20.80;53.50;;;;;;5049085;28;19921;-70
2022/10/23 01:24:46;;;;;;;;;;;20.80;53.50;;;;;;5064015;28;19964;-68
2022/10/23 01:27:23;;;;;;;;;;;20.80;53.50;;;;;;5049014;28;20080;-70
2022/10/23 01:29:52;;;;;;;;;;;20.80;53.50;;;;;;5064611;28;20013;-70
2022/10/23 01:32:21;;;;;;;;;;;20.80;53.40;;;;;;5047314;28;19924;-71
2022/10/23 01:34:48;;;;;;;;;;;20.80;53.40;;;;;;5045460;28;19964;-70
2022/10/23 01:37:15;;;;;;;;;;;20.80;53.40;;;;;;5061341;28;19935;-70
2022/10/23 01:39:44;;;;;;;;;;;20.80;53.40;;;;;;5045470;28;19925;-68
2022/10/23 01:42:11;;;;;;;;;;;20.80;53.40;;;;;;5056673;28;19924;-67
2022/10/23 01:44:41;;;;;;;;;;;20.80;53.40;;;;;;5065075;28;19974;-70
2022/10/23 01:47:08;;;;;;;;;;;20.80;53.30;;;;;;5065093;28;19967;-67
2022/10/23 01:49:35;;;;;;;;;;;20.80;53.30;;;;;;5059999;28;20279;-71
2022/10/23 01:52:02;;;;;;;;;;;20.80;53.30;;;;;;5064979;28;20324;-69
2022/10/23 01:54:29;;;;;;;;;;;20.80;53.30;;;;;;5052894;28;20011;-69
2022/10/23 01:56:55;;;;;;;;;;;20.80;53.20;;;;;;5049406;28;20328;-68
2022/10/23 01:59:22;;;;;;;;;;;20.80;53.20;;;;;;5049502;28;19921;-69
2022/10/23 02:01:51;;;;;;;;;;;20.80;53.20;;;;;;5065121;28;19921;-70
2022/10/23 02:04:18;;;;;;;;;;;20.80;53.50;;;;;;5062696;28;19921;-67
2022/10/23 02:06:45;;;;;;;;;;;20.80;53.20;;;;;;5064775;28;19928;-69
2022/10/23 02:09:11;;;;;;;;;;;20.80;53.20;;;;;;5046789;28;19921;-68
2022/10/23 02:11:39;;;;;;;;;;;20.80;53.20;;;;;;5048298;28;20370;-68
2022/10/23 02:14:07;;;;;;;;;;;20.70;53.00;;;;;;5064132;28;19928;-69
2022/10/23 02:16:35;;;;;;;;;;;20.80;53.10;;;;;;5064900;28;19920;-69
2022/10/23 02:19:04;;;;;;;;;;;20.70;53.00;;;;;;5047984;28;19956;-70
2022/10/23 02:21:31;;;;;;;;;;;20.70;52.90;;;;;;5066437;28;19952;-70
2022/10/23 02:23:59;;;;;;;;;;;20.70;52.90;;;;;;5058006;28;19924;-69
2022/10/23 02:26:27;;;;;;;;;;;20.70;52.90;;;;;;5059449;28;19979;-71
2022/10/23 02:28:54;;;;;;;;;;;20.70;52.90;;;;;;5051528;28;19963;-70
2022/10/23 02:31:21;;;;;;;;;;;20.70;52.90;;;;;;5052119;28;19924;-71
2022/10/23 02:33:48;;;;;;;;;;;20.70;52.90;;;;;;5067694;28;19921;-71
2022/10/23 02:36:16;;;;;;;;;;;20.70;52.90;;;;;;5051305;28;19925;-72
2022/10/23 02:38:43;;;;;;;;;;;20.80;52.90;;;;;;5060156;28;19921;-70
2022/10/23 02:41:22;;;;;;;;;;;20.70;52.80;;;;;;5049533;28;19975;-72
2022/10/23 02:43:51;;;;;;;;;;;20.70;52.80;;;;;;5064176;28;19928;-71
2022/10/23 02:46:20;;;;;;;;;;;20.70;52.80;;;;;;5050888;28;19935;-72
2022/10/23 02:48:48;;;;;;;;;;;20.70;52.80;;;;;;5051082;28;19925;-72
2022/10/23 02:51:18;;;;;;;;;;;20.70;52.80;;;;;;5067241;28;20372;-72
2022/10/23 02:53:45;;;;;;;;;;;20.70;52.70;;;;;;5050262;28;19925;-71
2022/10/23 02:56:12;;;;;;;;;;;20.70;53.30;;;;;;5052636;28;20002;-72
2022/10/23 02:58:41;;;;;;;;;;;20.70;52.80;;;;;;5050916;28;19943;-68
2022/10/23 03:01:08;;;;;;;;;;;20.70;52.70;;;;;;5067175;28;19928;-70
2022/10/23 03:03:35;;;;;;;;;;;20.70;52.70;;;;;;5065889;28;19990;-71
2022/10/23 03:06:02;;;;;;;;;;;20.70;52.70;;;;;;5067963;28;19920;-72
2022/10/23 03:08:30;;;;;;;;;;;20.70;52.70;;;;;;5066522;28;19927;-71
2022/10/23 03:10:57;;;;;;;;;;;20.70;52.60;;;;;;5065803;28;19960;-72
2022/10/23 03:13:24;;;;;;;;;;;20.70;52.60;;;;;;5066713;28;20015;-70
2022/10/23 03:15:51;;;;;;;;;;;20.70;52.60;;;;;;5067459;28;19927;-72
2022/10/23 03:18:17;;;;;;;;;;;20.70;52.60;;;;;;5066681;28;19920;-72
2022/10/23 03:20:44;;;;;;;;;;;20.70;52.60;;;;;;5066874;28;20343;-70
2022/10/23 03:23:11;;;;;;;;;;;20.70;52.50;;;;;;5050110;28;19952;-71
2022/10/23 03:25:39;;;;;;;;;;;20.60;52.50;;;;;;5066257;28;19925;-68
2022/10/23 03:28:06;;;;;;;;;;;20.70;52.50;;;;;;5067423;28;19920;-68
2022/10/23 03:30:33;;;;;;;;;;;20.70;52.50;;;;;;5052656;28;19921;-70
2022/10/23 03:33:00;;;;;;;;;;;20.60;52.40;;;;;;5066184;28;19921;-71
2022/10/23 03:35:26;;;;;;;;;;;20.60;52.40;;;;;;5050463;28;19924;-65
2022/10/23 03:37:53;;;;;;;;;;;20.70;52.40;;;;;;5066322;28;19956;-67
2022/10/23 03:40:20;;;;;;;;;;;20.60;52.30;;;;;;5051441;28;19974;-69
2022/10/23 03:42:48;;;;;;;;;;;20.60;52.30;;;;;;5049478;28;19925;-68
2022/10/23 03:45:14;;;;;;;;;;;20.60;52.30;;;;;;5050549;28;19925;-68
2022/10/23 03:47:41;;;;;;;;;;;20.60;52.20;;;;;;5052883;28;19920;-69
2022/10/23 03:50:08;;;;;;;;;;;20.60;52.20;;;;;;5065654;28;19927;-69
2022/10/23 03:52:35;;;;;;;;;;;20.60;52.20;;;;;;5050777;28;19921;-66
2022/10/23 03:55:01;;;;;;;;;;;20.70;52.20;;;;;;5048863;28;19966;-67
2022/10/23 03:57:28;;;;;;;;;;;20.70;52.20;;;;;;5050116;28;19964;-66
2022/10/23 03:59:56;;;;;;;;;;;20.60;52.10;;;;;;5065922;28;19929;-69
2022/10/23 04:02:23;;;;;;;;;;;20.60;52.00;;;;;;5048834;28;19925;-69
2022/10/23 04:04:49;;;;;;;;;;;20.60;52.00;;;;;;5050804;28;19968;-67
2022/10/23 04:07:16;;;;;;;;;;;20.60;51.90;;;;;;5063622;28;20016;-69
2022/10/23 04:09:43;;;;;;;;;;;20.60;51.90;;;;;;5051372;28;19987;-69
2022/10/23 04:12:09;;;;;;;;;;;20.60;51.90;;;;;;5065540;28;19925;-68
2022/10/23 04:14:36;;;;;;;;;;;20.60;51.90;;;;;;5058418;28;19975;-69
2022/10/23 04:17:04;;;;;;;;;;;20.60;51.90;;;;;;5066069;28;19921;-69
2022/10/23 04:19:31;;;;;;;;;;;20.60;51.80;;;;;;5064640;28;20392;-70
2022/10/23 04:21:58;;;;;;;;;;;20.60;51.80;;;;;;5066053;28;19978;-66
2022/10/23 04:24:24;;;;;;;;;;;20.50;51.70;;;;;;5048794;28;20004;-66
2022/10/23 04:26:51;;;;;;;;;;;20.60;51.70;;;;;;5049918;28;19947;-69
2022/10/23 04:29:20;;;;;;;;;;;20.50;51.60;;;;;;5064374;28;19921;-68
2022/10/23 04:31:46;;;;;;;;;;;20.50;51.50;;;;;;5065884;28;20429;-66
2022/10/23 04:34:14;;;;;;;;;;;20.60;51.60;;;;;;5059262;28;20331;-69
2022/10/23 04:36:41;;;;;;;;;;;20.50;51.50;;;;;;5046124;28;20310;-69
2022/10/23 04:39:08;;;;;;;;;;;20.50;51.50;;;;;;5057199;28;19921;-65
2022/10/23 04:41:35;;;;;;;;;;;20.50;51.40;;;;;;5065984;28;19974;-69
2022/10/23 04:44:02;;;;;;;;;;;20.50;51.40;;;;;;5054866;28;19921;-65
2022/10/23 04:46:29;;;;;;;;;;;20.60;51.40;;;;;;5040126;28;19966;-66
2022/10/23 04:48:56;;;;;;;;;;;20.50;51.40;;;;;;5064401;28;19959;-69
2022/10/23 04:51:24;;;;;;;;;;;20.50;51.40;;;;;;5048262;28;19925;-68
2022/10/23 04:53:50;;;;;;;;;;;20.50;51.40;;;;;;5048057;28;19921;-68
2022/10/23 04:56:17;;;;;;;;;;;20.50;51.40;;;;;;5059926;28;19925;-68
2022/10/23 04:58:44;;;;;;;;;;;20.50;51.30;;;;;;5062171;28;20011;-67
2022/10/23 05:01:11;;;;;;;;;;;20.50;51.30;;;;;;5061580;28;19925;-67
2022/10/23 05:03:37;;;;;;;;;;;20.50;51.20;;;;;;5047988;28;19924;-67
2022/10/23 05:06:04;;;;;;;;;;;20.50;51.20;;;;;;5048527;28;19991;-66
2022/10/23 05:08:34;;;;;;;;;;;20.50;51.10;;;;;;5064478;28;20015;-65
2022/10/23 05:11:01;;;;;;;;;;;20.50;51.10;;;;;;5065224;28;19928;-68
2022/10/23 05:13:27;;;;;;;;;;;20.50;51.00;;;;;;5047860;28;19968;-67
2022/10/23 05:15:54;;;;;;;;;;;20.50;51.00;;;;;;5048814;28;19929;-67
2022/10/23 05:18:21;;;;;;;;;;;20.50;50.90;;;;;;5065336;28;19925;-67
2022/10/23 05:20:48;;;;;;;;;;;20.50;50.90;;;;;;5063494;28;19921;-67
2022/10/23 05:23:15;;;;;;;;;;;20.50;50.80;;;;;;5063576;28;19921;-67
2022/10/23 05:25:43;;;;;;;;;;;20.50;50.80;;;;;;5048543;28;20016;-65
2022/10/23 05:28:10;;;;;;;;;;;20.40;50.70;;;;;;5064083;28;19947;-68
2022/10/23 05:30:36;;;;;;;;;;;20.40;50.70;;;;;;5040601;28;19921;-68
2022/10/23 05:33:03;;;;;;;;;;;20.40;50.70;;;;;;5065003;28;19925;-68
2022/10/23 05:35:30;;;;;;;;;;;20.40;50.70;;;;;;5047240;28;20165;-67
2022/10/23 05:37:57;;;;;;;;;;;20.40;50.60;;;;;;5049707;28;20410;-68
2022/10/23 05:40:23;;;;;;;;;;;20.40;50.60;;;;;;5048489;28;19952;-66
2022/10/23 05:42:52;;;;;;;;;;;20.40;50.50;;;;;;5063613;28;20023;-67
2022/10/23 05:45:18;;;;;;;;;;;20.40;50.50;;;;;;5049672;28;20349;-67
2022/10/23 05:47:45;;;;;;;;;;;20.40;50.50;;;;;;5064243;28;20376;-67
2022/10/23 05:50:12;;;;;;;;;;;20.40;50.40;;;;;;5046897;28;20319;-67
2022/10/23 05:52:39;;;;;;;;;;;20.40;50.40;;;;;;5064257;28;20058;-67
2022/10/23 05:55:06;;;;;;;;;;;20.40;50.40;;;;;;5060517;28;19932;-67
2022/10/23 05:57:32;;;;;;;;;;;20.40;50.40;;;;;;5068171;28;19932;-66
2022/10/23 06:00:01;;;;;;;;;;;20.40;50.30;;;;;;5053594;28;19929;-67
2022/10/23 06:02:27;;;;;;;;;;;20.40;50.30;;;;;;5049340;28;20041;-67
2022/10/23 06:04:54;;;;;;;;;;;20.40;50.30;;;;;;5062186;28;19964;-67
2022/10/23 06:07:23;;;;;;;;;;;20.40;50.30;;;;;;5032394;28;19929;-67
2022/10/23 06:09:49;;;;;;;;;;;20.40;50.30;;;;;;5049854;28;19993;-67
2022/10/23 06:12:16;;;;;;;;;;;20.40;50.30;;;;;;5060766;28;19983;-67
2022/10/23 06:14:43;;;;;;;;;;;20.40;50.30;;;;;;5062093;28;19952;-68
2022/10/23 06:17:11;;;;;;;;;;;20.40;50.30;;;;;;5060394;28;20012;-67
2022/10/23 06:19:38;;;;;;;;;;;20.40;50.40;;;;;;5060113;28;19924;-67
2022/10/23 06:22:04;;;;;;;;;;;20.40;50.40;;;;;;5051362;28;19932;-67
2022/10/23 06:24:31;;;;;;;;;;;20.40;50.40;;;;;;5064882;28;20191;-68
2022/10/23 06:26:58;;;;;;;;;;;20.40;50.40;;;;;;5061259;28;19921;-67
2022/10/23 06:29:24;;;;;;;;;;;20.40;50.40;;;;;;5043187;28;20015;-67
2022/10/23 06:31:51;;;;;;;;;;;20.40;50.30;;;;;;5059708;28;19986;-67
2022/10/23 06:34:19;;;;;;;;;;;20.40;50.40;;;;;;5059685;28;19968;-67
2022/10/23 06:36:46;;;;;;;;;;;20.40;50.30;;;;;;5060897;28;19921;-65
2022/10/23 06:39:13;;;;;;;;;;;20.40;50.30;;;;;;5043169;28;19959;-68
2022/10/23 06:41:40;;;;;;;;;;;20.40;50.30;;;;;;5052364;28;19960;-68
2022/10/23 06:44:07;;;;;;;;;;;20.40;50.30;;;;;;5064314;28;19928;-68
2022/10/23 06:46:34;;;;;;;;;;;20.40;50.30;;;;;;5059346;28;19925;-67
2022/10/23 06:49:01;;;;;;;;;;;20.40;50.30;;;;;;5057281;28;19992;-68
2022/10/23 06:51:29;;;;;;;;;;;20.40;50.30;;;;;;5058483;28;19921;-66
2022/10/23 06:53:56;;;;;;;;;;;20.40;50.30;;;;;;5059355;28;19974;-68
2022/10/23 06:56:24;;;;;;;;;;;20.40;50.20;;;;;;5061661;28;19986;-66
2022/10/23 06:58:50;;;;;;;;;;;20.40;50.20;;;;;;5049244;28;19928;-66
2022/10/23 07:01:17;;;;;;;;;;;20.40;50.20;;;;;;5061848;28;19963;-66
2022/10/23 07:03:44;;;;;;;;;;;20.40;50.20;;;;;;5046907;28;19928;-67
2022/10/23 07:06:11;;;;;;;;;;;20.30;50.10;;;;;;5057746;28;19925;-68
2022/10/23 07:08:39;;;;;;;;;;;20.30;50.10;;;;;;5057465;28;20012;-67
2022/10/23 07:11:05;;;;;;;;;;;20.40;50.20;;;;;;5061083;28;19933;-67
2022/10/23 07:13:32;;;;;;;;;;;20.30;50.00;;;;;;5062343;28;19974;-67
2022/10/23 07:15:59;;;;;;;;;;;20.40;50.10;;;;;;5045296;28;19971;-68
2022/10/23 07:18:26;;;;;;;;;;;20.40;50.10;;;;;;5049980;28;20374;-67
2022/10/23 07:20:57;;;;;;;;;;;20.30;50.00;;;;;;5057616;28;20354;-66
2022/10/23 07:23:23;;;;;;;;;;;20.30;50.00;;;;;;5059550;28;19963;-67
2022/10/23 07:25:52;;;;;;;;;;;20.30;49.90;;;;;;5044322;28;19920;-67
2022/10/23 07:28:18;;;;;;;;;;;20.40;50.10;;;;;;5057350;28;19924;-68
2022/10/23 07:30:45;;;;;;;;;;;20.30;50.30;;;;;;5060942;28;20263;-66
2022/10/23 07:33:12;;;;;;;;;;;20.30;49.90;;;;;;5061964;28;20276;-68
2022/10/23 07:35:39;;;;;;;;;;;20.30;49.90;;;;;;5059503;28;19925;-67
2022/10/23 07:38:06;;;;;;;;;;;20.30;49.90;;;;;;5045014;28;19956;-68
2022/10/23 07:40:33;;;;;;;;;;;20.30;49.90;;;;;;5048388;28;19993;-68
2022/10/23 07:43:01;;;;;;;;;;;20.30;49.80;;;;;;5051278;28;19920;-68
2022/10/23 07:45:28;;;;;;;;;;;20.30;49.80;;;;;;5050077;28;19964;-66
2022/10/23 07:47:55;;;;;;;;;;;20.30;49.70;;;;;;5062881;28;19947;-66
2022/10/23 07:50:22;;;;;;;;;;;20.30;49.70;;;;;;5067377;28;19925;-66
2022/10/23 07:52:48;;;;;;;;;;;20.30;49.80;;;;;;5049823;28;20352;-65
2022/10/23 07:55:15;;;;;;;;;;;20.20;49.80;;;;;;5046667;28;19939;-67
2022/10/23 07:57:42;;;;;;;;;;;20.20;49.80;;;;;;5065104;28;19921;-66
2022/10/23 08:00:11;;;;;;;;;;;20.20;49.90;;;;;;5054931;28;19943;-68
2022/10/23 08:02:38;;;;;;;;;;;20.20;49.90;;;;;;5056815;28;19920;-68
2022/10/23 08:05:05;;;;;;;;;;;20.20;50.00;;;;;;5057692;28;19975;-68
2022/10/23 08:07:32;;;;;;;;;;;20.20;50.00;;;;;;5056799;28;19932;-67
2022/10/23 08:09:58;;;;;;;;;;;20.20;50.00;;;;;;5053490;28;19935;-65
2022/10/23 08:12:25;;;;;;;;;;;20.20;50.00;;;;;;5059575;28;19925;-67
2022/10/23 08:14:52;;;;;;;;;;;20.20;50.10;;;;;;5047715;28;19974;-68
2022/10/23 08:17:20;;;;;;;;;;;20.20;50.10;;;;;;5048688;28;19932;-65
2022/10/23 08:19:47;;;;;;;;;;;20.20;50.10;;;;;;5048075;28;19960;-66
2022/10/23 08:22:14;;;;;;;;;;;20.20;50.20;;;;;;5065607;28;19932;-67
2022/10/23 08:24:40;;;;;;;;;;;20.20;50.30;;;;;;5048955;28;20097;-68
2022/10/23 08:27:07;;;;;;;;;;;20.30;50.40;;;;;;5047265;28;19925;-68
2022/10/23 08:29:34;;;;;;;;;;;20.20;50.40;;;;;;5058484;28;19990;-68
2022/10/23 08:32:00;;;;;;;;;;;20.20;50.50;;;;;;5048899;28;19955;-67
2022/10/23 08:34:28;;;;;;;;;;;20.20;50.60;;;;;;5054029;28;19983;-64
2022/10/23 08:36:55;;;;;;;;;;;20.20;50.70;;;;;;5048652;28;19939;-66
2022/10/23 08:39:24;;;;;;;;;;;20.20;50.80;;;;;;5068788;28;20452;-69
2022/10/23 08:41:51;;;;;;;;;;;20.20;50.90;;;;;;5064428;28;19947;-67
2022/10/23 08:44:19;;;;;;;;;;;20.10;50.90;;;;;;5048387;28;19948;-65
2022/10/23 08:46:47;;;;;;;;;;;20.10;51.00;;;;;;5057795;28;20251;-67
2022/10/23 08:49:17;;;;;;;;;;;20.10;51.10;;;;;;5033668;28;19931;-67
2022/10/23 08:51:46;;;;;;;;;;;20.10;51.20;;;;;;5047612;28;20015;-67
2022/10/23 08:54:14;;;;;;;;;;;20.10;51.20;;;;;;5055351;28;20019;-68
2022/10/23 08:56:41;;;;;;;;;;;20.00;51.30;;;;;;5056557;28;19920;-68
2022/10/23 08:59:11;;;;;;;;;;;20.00;51.40;;;;;;5067399;28;19920;-68
2022/10/23 09:01:38;;;;;;;;;;;20.00;51.50;;;;;;5050625;28;19921;-66
2022/10/23 09:04:05;;;;;;;;;;;20.00;51.50;;;;;;5048319;28;19920;-68
2022/10/23 09:06:34;;;;;;;;;;;20.00;51.60;;;;;;5066318;28;19924;-70
2022/10/23 09:09:05;;;;;;;;;;;20.00;51.60;;;;;;5061123;28;20365;-70
2022/10/23 09:11:32;;;;;;;;;;;20.00;51.70;;;;;;5032728;28;19927;-71
2022/10/23 09:14:02;;;;;;;;;;;20.00;51.80;;;;;;5070922;28;19962;-71
2022/10/23 09:16:37;;;;;;;;;;;19.90;51.80;;;;;;5046814;28;19925;-69
2022/10/23 09:19:09;;;;;;;;;;;19.90;51.90;;;;;;5066673;28;19921;-71
2022/10/23 09:21:35;;;;;;;;;;;19.90;51.90;;;;;;5049148;28;19920;-62
2022/10/23 09:24:04;;;;;;;;;;;19.90;52.00;;;;;;5047875;28;19983;-62
2022/10/23 09:26:30;;;;;;;;;;;19.80;52.00;;;;;;5060064;28;19983;-63
2022/10/23 09:29:01;;;;;;;;;;;19.80;52.00;;;;;;5061424;28;19921;-62
2022/10/23 09:31:28;;;;;;;;;;;19.80;52.00;;;;;;5066974;28;20370;-62
2022/10/23 09:33:55;;;;;;;;;;;19.80;51.90;;;;;;5063978;28;20024;-63
2022/10/23 09:36:23;;;;;;;;;;;19.90;52.00;;;;;;5056226;28;19932;-62
2022/10/23 09:38:50;;;;;;;;;;;19.90;51.90;;;;;;5064041;28;20023;-62
2022/10/23 09:41:19;;;;;;;;;;;19.90;51.80;;;;;;5045519;28;20003;-62
2022/10/23 09:43:46;;;;;;;;;;;19.90;51.70;;;;;;5051469;28;20366;-60
2022/10/23 09:46:12;;;;;;;;;;;20.00;51.80;;;;;;5051712;28;19974;-60
2022/10/23 09:48:41;;;;;;;;;;;20.00;51.90;;;;;;5069069;28;19928;-61
2022/10/23 09:51:15;;;;;;;;;;;20.00;51.90;;;;;;5062125;28;20013;-62
2022/10/23 09:53:47;;;;;;;;;;;20.10;52.00;;;;;;5061118;28;19982;-61
2022/10/23 09:56:24;;;;;;;;;;;20.10;52.00;;;;;;5067344;28;19952;-61
2022/10/23 09:58:52;;;;;;;;;;;20.10;52.00;;;;;;5057534;28;20012;-62
2022/10/23 10:01:22;;;;;;;;;;;20.10;52.00;;;;;;5045415;28;19975;-61
2022/10/23 10:03:49;;;;;;;;;;;20.20;52.10;;;;;;5066710;28;19932;-61
2022/10/23 10:06:20;;;;;;;;;;;20.20;52.10;;;;;;5051917;28;19925;-61
2022/10/23 10:08:48;;;;;;;;;;;20.20;52.10;;;;;;5052220;28;19927;-61
2022/10/23 10:11:16;;;;;;;;;;;20.20;52.10;;;;;;5048058;28;19960;-61
2022/10/23 10:13:54;;;;;;;;;;;20.30;52.20;;;;;;5066160;28;19927;-61
2022/10/23 10:16:24;;;;;;;;;;;20.30;52.20;;;;;;5066553;28;20274;-61
2022/10/23 10:18:55;;;;;;;;;;;20.30;52.20;;;;;;5069452;28;20051;-61
2022/10/23 10:21:22;;;;;;;;;;;20.40;52.20;;;;;;5048773;28;19925;-61
2022/10/23 10:23:50;;;;;;;;;;;20.30;52.20;;;;;;5049684;28;20266;-61
2022/10/23 10:26:23;;;;;;;;;;;20.40;52.30;;;;;;5059917;28;20322;-61
2022/10/23 10:28:56;;;;;;;;;;;20.40;52.40;;;;;;5049129;28;20011;-61
2022/10/23 10:31:23;;;;;;;;;;;20.40;52.40;;;;;;5047182;28;19921;-61
2022/10/23 10:33:53;;;;;;;;;;;20.40;52.40;;;;;;5063472;28;19927;-61
2022/10/23 10:36:26;;;;;;;;;;;20.40;52.40;;;;;;5065985;28;19931;-62
2022/10/23 10:38:53;;;;;;;;;;;20.40;52.40;;;;;;5061344;28;19928;-61
2022/10/23 10:41:23;;;;;;;;;;;20.40;52.40;;;;;;5056554;28;19924;-61
2022/10/23 10:43:52;;;;;;;;;;;20.40;52.40;;;;;;5073453;28;19920;-61
2022/10/23 10:46:22;;;;;;;;;;;20.50;52.50;;;;;;5055081;28;20247;-61
2022/10/23 10:48:49;;;;;;;;;;;20.50;52.50;;;;;;5051545;28;19924;-61
2022/10/23 10:51:18;;;;;;;;;;;20.50;52.50;;;;;;5066697;28;19933;-62
2022/10/23 10:53:48;;;;;;;;;;;20.50;52.50;;;;;;5050561;28;19928;-61
2022/10/23 10:56:15;;;;;;;;;;;20.50;52.50;;;;;;5066065;28;20008;-61
2022/10/23 10:58:43;;;;;;;;;;;20.50;52.50;;;;;;5068382;28;19921;-62
2022/10/23 11:01:12;;;;;;;;;;;20.60;52.50;;;;;;5053066;28;19956;-62
2022/10/23 11:03:41;;;;;;;;;;;20.50;52.50;;;;;;5056826;28;19921;-62
2022/10/23 11:06:09;;;;;;;;;;;20.50;52.50;;;;;;5070926;28;19956;-61
2022/10/23 11:08:36;;;;;;;;;;;20.50;52.50;;;;;;5047887;28;20000;-62
2022/10/23 11:11:04;;;;;;;;;;;20.50;52.50;;;;;;5048279;28;19921;-62
2022/10/23 11:13:33;;;;;;;;;;;20.50;52.50;;;;;;5057563;28;19959;-62
2022/10/23 11:16:01;;;;;;;;;;;20.60;52.50;;;;;;5060686;28;20023;-62
2022/10/23 11:18:28;;;;;;;;;;;20.60;52.50;;;;;;5067621;28;19943;-62
2022/10/23 11:21:10;;;;;;;;;;;20.60;52.50;;;;;;5044588;28;20362;-62
2022/10/23 11:23:44;;;;;;;;;;;20.60;52.50;;;;;;5054148;28;19924;-62
2022/10/23 11:26:13;;;;;;;;;;;20.60;52.50;;;;;;5069994;28;19925;-62
2022/10/23 11:28:45;;;;;;;;;;;20.60;52.50;;;;;;5042104;28;19997;-62
2022/10/23 11:31:16;;;;;;;;;;;20.60;52.50;;;;;;5051101;28;20011;-62
2022/10/23 11:34:04;;;;;;;;;;;20.60;52.50;;;;;;5053047;28;19963;-62
2022/10/23 11:36:41;;;;;;;;;;;20.60;52.50;;;;;;5063194;28;19960;-62
2022/10/23 11:39:14;;;;;;;;;;;20.70;52.60;;;;;;5065109;28;19952;-61
2022/10/23 11:41:47;;;;;;;;;;;20.60;52.50;;;;;;5065447;28;19925;-62
2022/10/23 11:44:22;;;;;;;;;;;20.60;52.50;;;;;;5059725;28;20035;-61
2022/10/23 11:46:51;;;;;;;;;;;20.60;52.50;;;;;;5063352;28;20023;-62
2022/10/23 11:49:19;;;;;;;;;;;20.60;52.60;;;;;;5063138;28;20008;-62
2022/10/23 11:51:47;;;;;;;;;;;20.60;52.60;;;;;;5070293;28;20374;-62
2022/10/23 11:54:25;;;;;;;;;;;20.60;52.60;;;;;;5065975;28;19921;-62
2022/10/23 11:56:54;;;;;;;;;;;20.70;52.70;;;;;;5066921;28;20154;-62
2022/10/23 11:59:22;;;;;;;;;;;20.70;52.70;;;;;;5050325;28;19955;-62
2022/10/23 12:01:49;;;;;;;;;;;20.70;52.80;;;;;;5053642;28;20019;-62
2022/10/23 12:04:17;;;;;;;;;;;20.70;52.80;;;;;;5067505;28;20024;-61
2022/10/23 12:06:45;;;;;;;;;;;20.70;52.80;;;;;;5070101;28;19927;-62
2022/10/23 12:09:23;;;;;;;;;;;20.70;52.80;;;;;;5063406;28;19924;-62
2022/10/23 12:12:00;;;;;;;;;;;20.70;52.90;;;;;;5060269;28;19975;-62
2022/10/23 12:14:28;;;;;;;;;;;20.70;52.90;;;;;;5068085;28;20436;-62
2022/10/23 12:16:55;;;;;;;;;;;20.70;52.90;;;;;;5065183;28;20006;-62
2022/10/23 12:19:22;;;;;;;;;;;20.70;52.90;;;;;;5063056;28;20019;-62
2022/10/23 12:21:50;;;;;;;;;;;20.70;52.90;;;;;;5064263;28;19982;-62
2022/10/23 12:24:35;;;;;;;;;;;20.70;52.90;;;;;;5066258;28;19963;-61
2022/10/23 12:27:05;;;;;;;;;;;20.70;52.90;;;;;;5051981;28;19933;-62
2022/10/23 12:29:45;;;;;;;;;;;20.70;52.90;;;;;;5049922;28;19963;-61
2022/10/23 12:32:22;;;;;;;;;;;20.70;52.90;;;;;;5056555;28;20002;-61
2022/10/23 12:34:51;;;;;;;;;;;20.70;53.10;;;;;;5063196;28;19956;-62
2022/10/23 12:37:26;;;;;;;;;;;20.70;53.20;;;;;;5049105;28;19986;-62
2022/10/23 12:39:53;;;;;;;;;;;20.70;53.30;;;;;;5067103;28;19920;-61
2022/10/23 12:42:22;;;;;;;;;;;20.70;53.50;;;;;;5062032;28;19927;-62
2022/10/23 12:44:57;;;;;;;;;;;20.70;53.50;;;;;;5047526;28;20034;-62
2022/10/23 12:47:23;;;;;;;;;;;20.70;53.70;;;;;;5060475;28;20482;-62
2022/10/23 12:49:51;;;;;;;;;;;20.70;53.80;;;;;;5052221;28;19960;-62
2022/10/23 12:52:18;;;;;;;;;;;20.70;53.90;;;;;;5067219;28;19948;-62
2022/10/23 12:54:44;;;;;;;;;;;20.70;54.00;;;;;;5048147;28;19921;-62
2022/10/23 12:57:17;;;;;;;;;;;20.60;54.00;;;;;;5050312;28;19975;-62
2022/10/23 12:59:45;;;;;;;;;;;20.60;54.10;;;;;;5063694;28;19967;-62
2022/10/23 13:02:21;;;;;;;;;;;20.60;54.20;;;;;;5067226;28;19983;-63
2022/10/23 13:04:48;;;;;;;;;;;20.60;54.30;;;;;;5064195;28;19920;-62
2022/10/23 13:07:14;;;;;;;;;;;20.60;54.40;;;;;;5045127;28;20012;-63
2022/10/23 13:09:41;;;;;;;;;;;20.60;54.40;;;;;;5049724;28;19974;-63
2022/10/23 13:12:08;;;;;;;;;;;20.60;54.40;;;;;;5054223;28;19924;-63
2022/10/23 13:14:36;;;;;;;;;;;20.60;54.50;;;;;;5065200;28;19963;-63
2022/10/23 13:17:04;;;;;;;;;;;20.60;54.50;;;;;;5047584;28;20393;-63
2022/10/23 13:19:31;;;;;;;;;;;20.60;54.50;;;;;;5063320;28;19936;-63
2022/10/23 13:21:58;;;;;;;;;;;20.60;54.50;;;;;;5071126;28;19977;-62
2022/10/23 13:24:25;;;;;;;;;;;20.60;55.00;;;;;;5065346;28;19927;-63
2022/10/23 13:26:52;;;;;;;;;;;20.60;54.30;;;;;;5055651;28;20296;-62
2022/10/23 13:29:19;;;;;;;;;;;20.60;54.20;;;;;;5048191;28;19967;-62
2022/10/23 13:31:46;;;;;;;;;;;20.60;54.20;;;;;;5051460;28;19925;-62
2022/10/23 13:34:18;;;;;;;;;;;20.60;54.20;;;;;;5051674;28;19968;-62
2022/10/23 13:36:52;;;;;;;;;;;20.60;54.00;;;;;;5046441;28;19925;-62
2022/10/23 13:39:22;;;;;;;;;;;20.60;54.00;;;;;;5048148;28;19929;-63
2022/10/23 13:41:48;;;;;;;;;;;20.60;53.90;;;;;;5031372;28;19925;-62
2022/10/23 13:44:16;;;;;;;;;;;20.60;53.90;;;;;;5062011;28;19921;-62
2022/10/23 13:46:42;;;;;;;;;;;20.60;53.80;;;;;;5062566;28;19960;-62
2022/10/23 13:49:09;;;;;;;;;;;20.60;53.80;;;;;;5063404;28;19921;-62
2022/10/23 13:51:38;;;;;;;;;;;20.60;53.80;;;;;;5063698;28;19936;-62
2022/10/23 13:54:06;;;;;;;;;;;20.70;53.80;;;;;;5060253;28;20199;-62
2022/10/23 13:56:32;;;;;;;;;;;20.70;53.80;;;;;;5047698;28;20153;-62
2022/10/23 13:58:59;;;;;;;;;;;20.70;53.80;;;;;;5055600;28;19928;-62
2022/10/23 14:01:26;;;;;;;;;;;20.70;53.80;;;;;;5062634;28;19920;-62
2022/10/23 14:03:53;;;;;;;;;;;20.70;53.80;;;;;;5046548;28;19987;-62
2022/10/23 14:06:20;;;;;;;;;;;20.70;53.80;;;;;;5063577;28;20441;-62
2022/10/23 14:08:48;;;;;;;;;;;20.70;53.70;;;;;;5048944;28;20374;-62
2022/10/23 14:11:15;;;;;;;;;;;20.70;53.70;;;;;;5052214;28;19925;-62
2022/10/23 14:13:41;;;;;;;;;;;20.80;53.80;;;;;;5063796;28;19960;-62
2022/10/23 14:16:08;;;;;;;;;;;20.70;53.70;;;;;;5065356;28;19970;-62
2022/10/23 14:18:35;;;;;;;;;;;20.70;53.70;;;;;;5066499;28;19980;-62
2022/10/23 14:21:02;;;;;;;;;;;20.70;53.60;;;;;;5040218;28;20012;-62